sensor_id;sensor_type;location;lat;lon;timestamp;temperature;humidity
28835;DHT22;15969;51.536;11.884;2023-04-28T00:00:43;6.20;99.90
28835;DHT22;15969;51.536;11.884;2023-04-28T00:03:09;6.30;99.90
28835;DHT22;15969;51.536;11.884;2023-04-28T00:05:35;6.30;99.90
28835;DHT22;15969;51.536;11.884;2023-04-28T00:08:00;6.20;99.90
28835;DHT22;15969;51.536;11.884;2023-04-28T00:10:27;6.20;99.90
28835;DHT22;15969;51.536;11.884;2023-04-28T00:12:53;6.10;99.90
28835;DHT22;15969;51.536;11.884;2023-04-28T00:15:19;6.20;99.90
28835;DHT22;15969;51.536;11.884;2023-04-28T00:17:45;6.20;99.90
28835;DHT22;15969;51.536;11.884;2023-04-28T00:20:11;6.20;99.90
28835;DHT22;15969;51.536;11.884;2023-04-28T00:22:36;6.20;99.90
28835;DHT22;15969;51.536;11.884;2023-04-28T00:25:02;6.20;99.90
28835;DHT22;15969;51.536;11.884;2023-04-28T00:27:29;6.10;99.90
28835;DHT22;15969;51.536;11.884;2023-04-28T00:29:54;6.00;99.90
28835;DHT22;15969;51.536;11.884;2023-04-28T00:32:20;5.90;99.90
28835;DHT22;15969;51.536;11.884;2023-04-28T00:34:46;5.80;99.90
28835;DHT22;15969;51.536;11.884;2023-04-28T00:37:11;5.80;99.90
28835;DHT22;15969;51.536;11.884;2023-04-28T00:39:37;5.70;99.90
28835;DHT22;15969;51.536;11.884;2023-04-28T00:42:03;5.70;99.90
28835;DHT22;15969;51.536;11.884;2023-04-28T00:44:29;5.60;99.90
28835;DHT22;15969;51.536;11.884;2023-04-28T00:46:55;5.70;99.90
28835;DHT22;15969;51.536;11.884;2023-04-28T00:49:21;5.70;99.90
28835;DHT22;15969;51.536;11.884;2023-04-28T00:51:47;5.80;99.90
28835;DHT22;15969;51.536;11.884;2023-04-28T00:54:13;5.80;99.90
28835;DHT22;15969;51.536;11.884;2023-04-28T00:56:39;5.70;99.90
28835;DHT22;15969;51.536;11.884;2023-04-28T00:59:04;5.70;99.90
28835;DHT22;15969;51.536;11.884;2023-04-28T01:01:31;5.70;99.90
28835;DHT22;15969;51.536;11.884;2023-04-28T01:03:56;5.70;99.90
28835;DHT22;15969;51.536;11.884;2023-04-28T01:06:22;5.60;99.90
28835;DHT22;15969;51.536;11.884;2023-04-28T01:08:48;5.60;99.90
28835;DHT22;15969;51.536;11.884;2023-04-28T01:11:17;5.60;99.90
28835;DHT22;15969;51.536;11.884;2023-04-28T01:13:43;5.60;99.90
28835;DHT22;15969;51.536;11.884;2023-04-28T01:16:09;5.70;99.90
28835;DHT22;15969;51.536;11.884;2023-04-28T01:18:35;5.70;99.90
28835;DHT22;15969;51.536;11.884;2023-04-28T01:21:01;5.70;99.90
28835;DHT22;15969;51.536;11.884;2023-04-28T01:23:28;5.70;99.90
28835;DHT22;15969;51.536;11.884;2023-04-28T01:25:54;5.70;99.90
28835;DHT22;15969;51.536;11.884;2023-04-28T01:28:20;5.70;99.90
28835;DHT22;15969;51.536;11.884;2023-04-28T01:30:46;5.80;99.90
28835;DHT22;15969;51.536;11.884;2023-04-28T01:33:12;5.90;99.90
28835;DHT22;15969;51.536;11.884;2023-04-28T01:35:37;5.90;99.90
28835;DHT22;15969;51.536;11.884;2023-04-28T01:38:03;5.80;99.90
28835;DHT22;15969;51.536;11.884;2023-04-28T01:40:29;5.80;99.90
28835;DHT22;15969;51.536;11.884;2023-04-28T01:42:54;5.80;99.90
28835;DHT22;15969;51.536;11.884;2023-04-28T01:45:20;5.70;99.90
28835;DHT22;15969;51.536;11.884;2023-04-28T01:47:46;5.70;99.90
28835;DHT22;15969;51.536;11.884;2023-04-28T01:50:11;5.80;99.90
28835;DHT22;15969;51.536;11.884;2023-04-28T01:52:37;5.80;99.90
28835;DHT22;15969;51.536;11.884;2023-04-28T01:55:03;5.80;99.90
28835;DHT22;15969;51.536;11.884;2023-04-28T01:57:29;5.80;99.90
28835;DHT22;15969;51.536;11.884;2023-04-28T01:59:55;5.70;99.90
28835;DHT22;15969;51.536;11.884;2023-04-28T02:02:22;5.80;99.90
28835;DHT22;15969;51.536;11.884;2023-04-28T02:04:47;5.80;99.90
28835;DHT22;15969;51.536;11.884;2023-04-28T02:07:13;5.80;99.90
28835;DHT22;15969;51.536;11.884;2023-04-28T02:09:38;5.80;99.90
28835;DHT22;15969;51.536;11.884;2023-04-28T02:12:04;5.80;99.90
28835;DHT22;15969;51.536;11.884;2023-04-28T02:14:30;5.80;99.90
28835;DHT22;15969;51.536;11.884;2023-04-28T02:16:58;5.80;99.90
28835;DHT22;15969;51.536;11.884;2023-04-28T02:19:24;5.90;99.90
28835;DHT22;15969;51.536;11.884;2023-04-28T02:21:49;5.80;99.90
28835;DHT22;15969;51.536;11.884;2023-04-28T02:24:15;5.90;99.90
28835;DHT22;15969;51.536;11.884;2023-04-28T02:26:41;5.70;99.90
28835;DHT22;15969;51.536;11.884;2023-04-28T02:29:07;5.70;99.90
28835;DHT22;15969;51.536;11.884;2023-04-28T02:31:32;5.60;99.90
28835;DHT22;15969;51.536;11.884;2023-04-28T02:33:58;5.60;99.90
28835;DHT22;15969;51.536;11.884;2023-04-28T02:36:24;5.60;99.90
28835;DHT22;15969;51.536;11.884;2023-04-28T02:38:50;5.50;99.90
28835;DHT22;15969;51.536;11.884;2023-04-28T02:41:15;5.50;99.90
28835;DHT22;15969;51.536;11.884;2023-04-28T02:43:41;5.40;99.90
28835;DHT22;15969;51.536;11.884;2023-04-28T02:46:07;5.30;99.90
28835;DHT22;15969;51.536;11.884;2023-04-28T02:48:33;5.40;99.90
28835;DHT22;15969;51.536;11.884;2023-04-28T02:51:00;5.30;99.90
28835;DHT22;15969;51.536;11.884;2023-04-28T02:53:26;5.30;99.90
28835;DHT22;15969;51.536;11.884;2023-04-28T02:55:52;5.30;99.90
28835;DHT22;15969;51.536;11.884;2023-04-28T02:58:18;5.30;99.90
28835;DHT22;15969;51.536;11.884;2023-04-28T03:00:44;5.20;99.90
28835;DHT22;15969;51.536;11.884;2023-04-28T03:03:10;5.20;99.90
28835;DHT22;15969;51.536;11.884;2023-04-28T03:05:36;5.10;99.90
28835;DHT22;15969;51.536;11.884;2023-04-28T03:08:02;5.00;99.90
28835;DHT22;15969;51.536;11.884;2023-04-28T03:10:28;5.00;99.90
28835;DHT22;15969;51.536;11.884;2023-04-28T03:12:53;5.20;99.90
28835;DHT22;15969;51.536;11.884;2023-04-28T03:15:19;5.20;99.90
28835;DHT22;15969;51.536;11.884;2023-04-28T03:17:44;5.20;99.90
28835;DHT22;15969;51.536;11.884;2023-04-28T03:20:10;5.20;99.90
28835;DHT22;15969;51.536;11.884;2023-04-28T03:22:37;5.10;99.90
28835;DHT22;15969;51.536;11.884;2023-04-28T03:25:03;5.10;99.90
28835;DHT22;15969;51.536;11.884;2023-04-28T03:27:29;5.10;99.90
28835;DHT22;15969;51.536;11.884;2023-04-28T03:29:55;5.20;99.90
28835;DHT22;15969;51.536;11.884;2023-04-28T03:32:21;5.20;99.90
28835;DHT22;15969;51.536;11.884;2023-04-28T03:34:46;5.20;99.90
28835;DHT22;15969;51.536;11.884;2023-04-28T03:37:12;5.20;99.90
28835;DHT22;15969;51.536;11.884;2023-04-28T03:39:38;5.10;99.90
28835;DHT22;15969;51.536;11.884;2023-04-28T03:42:04;5.10;99.90
28835;DHT22;15969;51.536;11.884;2023-04-28T03:44:29;5.20;99.90
28835;DHT22;15969;51.536;11.884;2023-04-28T03:46:55;5.20;99.90
28835;DHT22;15969;51.536;11.884;2023-04-28T03:49:21;5.30;99.90
28835;DHT22;15969;51.536;11.884;2023-04-28T03:51:47;5.30;99.90
28835;DHT22;15969;51.536;11.884;2023-04-28T03:54:14;5.30;99.90
28835;DHT22;15969;51.536;11.884;2023-04-28T03:56:39;5.40;99.90
28835;DHT22;15969;51.536;11.884;2023-04-28T03:59:05;5.30;99.90
28835;DHT22;15969;51.536;11.884;2023-04-28T04:01:31;5.30;99.90
28835;DHT22;15969;51.536;11.884;2023-04-28T04:03:56;5.30;99.90
28835;DHT22;15969;51.536;11.884;2023-04-28T04:06:22;5.40;99.90
28835;DHT22;15969;51.536;11.884;2023-04-28T04:08:48;5.40;99.90
28835;DHT22;15969;51.536;11.884;2023-04-28T04:11:14;5.50;99.90
28835;DHT22;15969;51.536;11.884;2023-04-28T04:13:39;5.40;99.90
28835;DHT22;15969;51.536;11.884;2023-04-28T04:16:05;5.50;99.90
28835;DHT22;15969;51.536;11.884;2023-04-28T04:18:31;5.50;99.90
28835;DHT22;15969;51.536;11.884;2023-04-28T04:20:57;5.40;99.90
28835;DHT22;15969;51.536;11.884;2023-04-28T04:23:23;5.50;99.90
28835;DHT22;15969;51.536;11.884;2023-04-28T04:25:49;5.60;99.90
28835;DHT22;15969;51.536;11.884;2023-04-28T04:28:14;5.70;99.90
28835;DHT22;15969;51.536;11.884;2023-04-28T04:30:40;5.70;99.90
28835;DHT22;15969;51.536;11.884;2023-04-28T04:33:06;5.80;99.90
28835;DHT22;15969;51.536;11.884;2023-04-28T04:35:32;5.80;99.90
28835;DHT22;15969;51.536;11.884;2023-04-28T04:37:58;5.80;99.90
28835;DHT22;15969;51.536;11.884;2023-04-28T04:40:25;5.90;99.90
28835;DHT22;15969;51.536;11.884;2023-04-28T04:42:51;5.90;99.90
28835;DHT22;15969;51.536;11.884;2023-04-28T04:45:16;6.00;99.90
28835;DHT22;15969;51.536;11.884;2023-04-28T04:47:42;6.10;99.90
28835;DHT22;15969;51.536;11.884;2023-04-28T04:50:10;6.20;99.90
28835;DHT22;15969;51.536;11.884;2023-04-28T04:52:36;6.10;99.90
28835;DHT22;15969;51.536;11.884;2023-04-28T04:55:02;6.10;99.90
28835;DHT22;15969;51.536;11.884;2023-04-28T04:57:28;6.20;99.90
28835;DHT22;15969;51.536;11.884;2023-04-28T04:59:54;6.30;99.90
28835;DHT22;15969;51.536;11.884;2023-04-28T05:02:20;6.30;99.90
28835;DHT22;15969;51.536;11.884;2023-04-28T05:04:46;6.40;99.90
28835;DHT22;15969;51.536;11.884;2023-04-28T05:07:11;6.50;99.90
28835;DHT22;15969;51.536;11.884;2023-04-28T05:09:38;6.60;99.90
28835;DHT22;15969;51.536;11.884;2023-04-28T05:12:03;6.70;99.90
28835;DHT22;15969;51.536;11.884;2023-04-28T05:14:29;6.80;99.90
28835;DHT22;15969;51.536;11.884;2023-04-28T05:16:55;6.80;99.90
28835;DHT22;15969;51.536;11.884;2023-04-28T05:19:22;6.90;99.90
28835;DHT22;15969;51.536;11.884;2023-04-28T05:21:47;7.00;99.90
28835;DHT22;15969;51.536;11.884;2023-04-28T05:24:13;7.20;99.90
28835;DHT22;15969;51.536;11.884;2023-04-28T05:26:39;7.30;99.90
28835;DHT22;15969;51.536;11.884;2023-04-28T05:29:05;7.50;99.90
28835;DHT22;15969;51.536;11.884;2023-04-28T05:31:31;7.60;99.90
28835;DHT22;15969;51.536;11.884;2023-04-28T05:33:56;7.70;99.90
28835;DHT22;15969;51.536;11.884;2023-04-28T05:36:23;7.90;99.90
28835;DHT22;15969;51.536;11.884;2023-04-28T05:38:49;8.10;99.90
28835;DHT22;15969;51.536;11.884;2023-04-28T05:41:14;8.20;99.90
28835;DHT22;15969;51.536;11.884;2023-04-28T05:43:40;8.30;99.90
28835;DHT22;15969;51.536;11.884;2023-04-28T05:46:05;8.30;99.90
28835;DHT22;15969;51.536;11.884;2023-04-28T05:48:31;8.30;99.90
28835;DHT22;15969;51.536;11.884;2023-04-28T05:50:57;8.40;99.90
28835;DHT22;15969;51.536;11.884;2023-04-28T05:53:22;8.40;99.90
28835;DHT22;15969;51.536;11.884;2023-04-28T05:55:48;8.40;99.90
28835;DHT22;15969;51.536;11.884;2023-04-28T05:58:14;8.50;99.90
28835;DHT22;15969;51.536;11.884;2023-04-28T06:00:39;8.50;99.90
28835;DHT22;15969;51.536;11.884;2023-04-28T06:03:05;8.60;99.90
28835;DHT22;15969;51.536;11.884;2023-04-28T06:05:35;8.60;99.90
28835;DHT22;15969;51.536;11.884;2023-04-28T06:08:01;8.70;99.90
28835;DHT22;15969;51.536;11.884;2023-04-28T06:10:27;8.80;99.90
28835;DHT22;15969;51.536;11.884;2023-04-28T06:12:53;8.90;99.90
28835;DHT22;15969;51.536;11.884;2023-04-28T06:15:19;9.00;99.90
28835;DHT22;15969;51.536;11.884;2023-04-28T06:17:45;9.10;99.90
28835;DHT22;15969;51.536;11.884;2023-04-28T06:20:11;9.20;99.90
28835;DHT22;15969;51.536;11.884;2023-04-28T06:22:38;9.40;99.90
28835;DHT22;15969;51.536;11.884;2023-04-28T06:25:05;9.50;99.90
28835;DHT22;15969;51.536;11.884;2023-04-28T06:27:31;9.60;99.90
28835;DHT22;15969;51.536;11.884;2023-04-28T06:29:57;9.60;99.90
28835;DHT22;15969;51.536;11.884;2023-04-28T06:32:23;9.80;99.90
28835;DHT22;15969;51.536;11.884;2023-04-28T06:34:49;9.80;99.90
28835;DHT22;15969;51.536;11.884;2023-04-28T06:37:14;9.90;99.90
28835;DHT22;15969;51.536;11.884;2023-04-28T06:39:40;10.00;99.90
28835;DHT22;15969;51.536;11.884;2023-04-28T06:42:06;10.10;99.90
28835;DHT22;15969;51.536;11.884;2023-04-28T06:44:31;10.10;99.90
28835;DHT22;15969;51.536;11.884;2023-04-28T06:46:57;10.20;99.90
28835;DHT22;15969;51.536;11.884;2023-04-28T06:49:23;10.20;99.90
28835;DHT22;15969;51.536;11.884;2023-04-28T06:51:49;10.30;99.90
28835;DHT22;15969;51.536;11.884;2023-04-28T06:54:15;10.30;99.90
28835;DHT22;15969;51.536;11.884;2023-04-28T06:56:41;10.30;99.70
28835;DHT22;15969;51.536;11.884;2023-04-28T06:59:06;10.40;99.80
28835;DHT22;15969;51.536;11.884;2023-04-28T07:01:32;10.50;99.90
28835;DHT22;15969;51.536;11.884;2023-04-28T07:03:58;10.60;99.90
28835;DHT22;15969;51.536;11.884;2023-04-28T07:06:23;10.60;99.70
28835;DHT22;15969;51.536;11.884;2023-04-28T07:08:52;10.70;99.80
28835;DHT22;15969;51.536;11.884;2023-04-28T07:11:17;10.90;99.80
28835;DHT22;15969;51.536;11.884;2023-04-28T07:13:43;10.90;99.30
28835;DHT22;15969;51.536;11.884;2023-04-28T07:16:13;10.90;99.10
28835;DHT22;15969;51.536;11.884;2023-04-28T07:18:39;11.10;99.20
28835;DHT22;15969;51.536;11.884;2023-04-28T07:21:05;11.20;98.30
28835;DHT22;15969;51.536;11.884;2023-04-28T07:23:30;11.30;98.20
28835;DHT22;15969;51.536;11.884;2023-04-28T07:25:56;11.30;97.80
28835;DHT22;15969;51.536;11.884;2023-04-28T07:28:22;11.40;97.60
28835;DHT22;15969;51.536;11.884;2023-04-28T07:30:48;11.50;97.50
28835;DHT22;15969;51.536;11.884;2023-04-28T07:33:14;11.60;96.90
28835;DHT22;15969;51.536;11.884;2023-04-28T07:35:40;11.70;97.40
28835;DHT22;15969;51.536;11.884;2023-04-28T07:38:05;11.80;97.20
28835;DHT22;15969;51.536;11.884;2023-04-28T07:40:31;11.90;97.20
28835;DHT22;15969;51.536;11.884;2023-04-28T07:42:57;11.90;96.70
28835;DHT22;15969;51.536;11.884;2023-04-28T07:45:22;12.00;96.50
28835;DHT22;15969;51.536;11.884;2023-04-28T07:47:48;12.00;95.90
28835;DHT22;15969;51.536;11.884;2023-04-28T07:50:14;12.10;96.20
28835;DHT22;15969;51.536;11.884;2023-04-28T07:52:40;12.10;95.60
28835;DHT22;15969;51.536;11.884;2023-04-28T07:55:06;12.20;95.90
28835;DHT22;15969;51.536;11.884;2023-04-28T07:57:32;12.20;96.40
28835;DHT22;15969;51.536;11.884;2023-04-28T07:59:57;12.30;95.60
28835;DHT22;15969;51.536;11.884;2023-04-28T08:02:23;12.30;95.70
28835;DHT22;15969;51.536;11.884;2023-04-28T08:04:50;12.40;95.80
28835;DHT22;15969;51.536;11.884;2023-04-28T08:07:15;12.50;96.00
28835;DHT22;15969;51.536;11.884;2023-04-28T08:09:41;12.60;95.70
28835;DHT22;15969;51.536;11.884;2023-04-28T08:12:11;12.70;95.30
28835;DHT22;15969;51.536;11.884;2023-04-28T08:14:37;12.80;94.50
28835;DHT22;15969;51.536;11.884;2023-04-28T08:17:03;12.80;93.90
28835;DHT22;15969;51.536;11.884;2023-04-28T08:19:28;12.80;93.30
28835;DHT22;15969;51.536;11.884;2023-04-28T08:21:54;12.90;93.70
28835;DHT22;15969;51.536;11.884;2023-04-28T08:24:20;12.90;93.80
28835;DHT22;15969;51.536;11.884;2023-04-28T08:26:45;13.00;93.00
28835;DHT22;15969;51.536;11.884;2023-04-28T08:29:11;13.10;93.30
28835;DHT22;15969;51.536;11.884;2023-04-28T08:31:37;13.20;92.60
28835;DHT22;15969;51.536;11.884;2023-04-28T08:34:03;13.30;93.40
28835;DHT22;15969;51.536;11.884;2023-04-28T08:36:28;13.40;92.30
28835;DHT22;15969;51.536;11.884;2023-04-28T08:38:57;13.50;92.40
28835;DHT22;15969;51.536;11.884;2023-04-28T08:41:24;13.50;93.30
28835;DHT22;15969;51.536;11.884;2023-04-28T08:43:52;13.50;92.50
28835;DHT22;15969;51.536;11.884;2023-04-28T08:46:20;13.50;92.30
28835;DHT22;15969;51.536;11.884;2023-04-28T08:48:48;13.60;92.70
28835;DHT22;15969;51.536;11.884;2023-04-28T08:51:15;13.60;92.80
28835;DHT22;15969;51.536;11.884;2023-04-28T08:53:49;13.60;92.30
28835;DHT22;15969;51.536;11.884;2023-04-28T08:56:16;13.60;92.40
28835;DHT22;15969;51.536;11.884;2023-04-28T08:58:43;13.60;93.20
28835;DHT22;15969;51.536;11.884;2023-04-28T09:01:09;13.70;92.80
28835;DHT22;15969;51.536;11.884;2023-04-28T09:03:35;13.80;92.60
28835;DHT22;15969;51.536;11.884;2023-04-28T09:06:01;13.80;93.40
28835;DHT22;15969;51.536;11.884;2023-04-28T09:08:27;13.80;94.60
28835;DHT22;15969;51.536;11.884;2023-04-28T09:11:09;13.80;94.70
28835;DHT22;15969;51.536;11.884;2023-04-28T09:13:36;13.90;94.40
28835;DHT22;15969;51.536;11.884;2023-04-28T09:16:03;13.90;95.60
28835;DHT22;15969;51.536;11.884;2023-04-28T09:18:29;14.00;94.90
28835;DHT22;15969;51.536;11.884;2023-04-28T09:21:09;13.90;95.30
28835;DHT22;15969;51.536;11.884;2023-04-28T09:23:46;13.90;94.70
28835;DHT22;15969;51.536;11.884;2023-04-28T09:26:13;13.80;94.50
28835;DHT22;15969;51.536;11.884;2023-04-28T09:28:39;13.80;95.60
28835;DHT22;15969;51.536;11.884;2023-04-28T09:31:05;13.70;96.30
28835;DHT22;15969;51.536;11.884;2023-04-28T09:33:30;13.70;96.60
28835;DHT22;15969;51.536;11.884;2023-04-28T09:35:56;13.60;97.40
28835;DHT22;15969;51.536;11.884;2023-04-28T09:38:22;13.60;97.00
28835;DHT22;15969;51.536;11.884;2023-04-28T09:40:59;13.60;96.50
28835;DHT22;15969;51.536;11.884;2023-04-28T09:45:58;13.60;96.50
28835;DHT22;15969;51.536;11.884;2023-04-28T09:48:35;13.70;97.20
28835;DHT22;15969;51.536;11.884;2023-04-28T09:51:06;13.60;97.40
28835;DHT22;15969;51.536;11.884;2023-04-28T09:53:33;13.60;97.90
28835;DHT22;15969;51.536;11.884;2023-04-28T09:56:02;13.60;97.80
28835;DHT22;15969;51.536;11.884;2023-04-28T09:58:29;13.70;98.40
28835;DHT22;15969;51.536;11.884;2023-04-28T10:00:58;13.70;98.40
28835;DHT22;15969;51.536;11.884;2023-04-28T10:03:26;13.80;99.30
28835;DHT22;15969;51.536;11.884;2023-04-28T10:05:53;13.70;99.90
28835;DHT22;15969;51.536;11.884;2023-04-28T10:08:21;13.80;99.90
28835;DHT22;15969;51.536;11.884;2023-04-28T10:10:48;13.80;99.90
28835;DHT22;15969;51.536;11.884;2023-04-28T10:13:18;13.80;99.90
28835;DHT22;15969;51.536;11.884;2023-04-28T10:15:45;13.70;99.90
28835;DHT22;15969;51.536;11.884;2023-04-28T10:18:12;13.70;99.90
28835;DHT22;15969;51.536;11.884;2023-04-28T10:20:46;13.60;99.90
28835;DHT22;15969;51.536;11.884;2023-04-28T10:29:23;13.50;99.90
28835;DHT22;15969;51.536;11.884;2023-04-28T10:32:15;13.40;99.90
28835;DHT22;15969;51.536;11.884;2023-04-28T10:34:42;13.40;99.90
28835;DHT22;15969;51.536;11.884;2023-04-28T10:37:08;13.40;99.90
28835;DHT22;15969;51.536;11.884;2023-04-28T10:39:34;13.50;99.90
28835;DHT22;15969;51.536;11.884;2023-04-28T10:41:59;13.50;99.90
28835;DHT22;15969;51.536;11.884;2023-04-28T10:47:05;13.60;99.90
28835;DHT22;15969;51.536;11.884;2023-04-28T10:55:25;13.90;99.90
28835;DHT22;15969;51.536;11.884;2023-04-28T10:58:29;13.90;99.90
28835;DHT22;15969;51.536;11.884;2023-04-28T11:06:34;13.90;99.90
28835;DHT22;15969;51.536;11.884;2023-04-28T11:16:57;13.80;99.90
28835;DHT22;15969;51.536;11.884;2023-04-28T11:19:42;13.70;99.90
28835;DHT22;15969;51.536;11.884;2023-04-28T11:22:20;13.70;99.90
28835;DHT22;15969;51.536;11.884;2023-04-28T11:24:58;13.70;99.90
28835;DHT22;15969;51.536;11.884;2023-04-28T11:27:30;13.70;99.90
28835;DHT22;15969;51.536;11.884;2023-04-28T11:29:57;13.80;99.90
28835;DHT22;15969;51.536;11.884;2023-04-28T11:34:53;14.00;99.90
28835;DHT22;15969;51.536;11.884;2023-04-28T11:37:19;14.10;99.90
28835;DHT22;15969;51.536;11.884;2023-04-28T11:39:46;14.20;99.90
28835;DHT22;15969;51.536;11.884;2023-04-28T11:42:11;14.30;99.90
28835;DHT22;15969;51.536;11.884;2023-04-28T11:44:37;14.30;99.90
28835;DHT22;15969;51.536;11.884;2023-04-28T11:47:04;14.30;99.90
28835;DHT22;15969;51.536;11.884;2023-04-28T11:49:31;14.40;99.90
28835;DHT22;15969;51.536;11.884;2023-04-28T11:52:07;14.30;99.90
28835;DHT22;15969;51.536;11.884;2023-04-28T11:54:34;14.20;99.90
28835;DHT22;15969;51.536;11.884;2023-04-28T11:57:01;14.10;99.90
28835;DHT22;15969;51.536;11.884;2023-04-28T11:59:30;14.10;99.90
28835;DHT22;15969;51.536;11.884;2023-04-28T12:02:05;14.00;99.90
28835;DHT22;15969;51.536;11.884;2023-04-28T12:09:42;14.10;99.90
28835;DHT22;15969;51.536;11.884;2023-04-28T12:12:12;14.10;99.90
28835;DHT22;15969;51.536;11.884;2023-04-28T12:17:28;14.20;99.90
28835;DHT22;15969;51.536;11.884;2023-04-28T12:19:57;14.20;99.90
28835;DHT22;15969;51.536;11.884;2023-04-28T12:22:24;14.30;99.90
28835;DHT22;15969;51.536;11.884;2023-04-28T12:25:07;14.40;99.90
28835;DHT22;15969;51.536;11.884;2023-04-28T12:27:35;14.60;99.90
28835;DHT22;15969;51.536;11.884;2023-04-28T12:30:23;14.70;99.90
28835;DHT22;15969;51.536;11.884;2023-04-28T12:32:49;14.70;99.90
28835;DHT22;15969;51.536;11.884;2023-04-28T12:35:16;14.70;99.90
28835;DHT22;15969;51.536;11.884;2023-04-28T12:37:42;14.70;99.90
28835;DHT22;15969;51.536;11.884;2023-04-28T12:40:08;14.70;99.90
28835;DHT22;15969;51.536;11.884;2023-04-28T12:42:35;14.70;99.90
28835;DHT22;15969;51.536;11.884;2023-04-28T12:45:01;14.70;99.90
28835;DHT22;15969;51.536;11.884;2023-04-28T12:47:27;14.60;99.90
28835;DHT22;15969;51.536;11.884;2023-04-28T12:49:52;14.60;99.90
28835;DHT22;15969;51.536;11.884;2023-04-28T12:52:19;14.60;99.90
28835;DHT22;15969;51.536;11.884;2023-04-28T12:54:45;14.70;99.90
28835;DHT22;15969;51.536;11.884;2023-04-28T12:57:15;14.70;99.90
28835;DHT22;15969;51.536;11.884;2023-04-28T12:59:42;14.70;99.90
28835;DHT22;15969;51.536;11.884;2023-04-28T13:02:08;14.70;99.90
28835;DHT22;15969;51.536;11.884;2023-04-28T13:04:33;14.70;99.90
28835;DHT22;15969;51.536;11.884;2023-04-28T13:07:00;14.70;99.90
28835;DHT22;15969;51.536;11.884;2023-04-28T13:09:26;14.70;99.90
28835;DHT22;15969;51.536;11.884;2023-04-28T13:11:51;14.70;99.90
28835;DHT22;15969;51.536;11.884;2023-04-28T13:14:21;14.70;99.90
28835;DHT22;15969;51.536;11.884;2023-04-28T13:16:47;14.70;99.90
28835;DHT22;15969;51.536;11.884;2023-04-28T13:19:12;14.70;99.90
28835;DHT22;15969;51.536;11.884;2023-04-28T13:21:39;14.80;99.90
28835;DHT22;15969;51.536;11.884;2023-04-28T13:24:07;14.90;99.90
28835;DHT22;15969;51.536;11.884;2023-04-28T13:26:33;14.90;99.90
28835;DHT22;15969;51.536;11.884;2023-04-28T13:28:59;14.90;99.90
28835;DHT22;15969;51.536;11.884;2023-04-28T13:31:27;14.70;99.90
28835;DHT22;15969;51.536;11.884;2023-04-28T13:33:54;14.70;99.90
28835;DHT22;15969;51.536;11.884;2023-04-28T13:36:20;14.70;99.90
28835;DHT22;15969;51.536;11.884;2023-04-28T13:38:46;14.60;99.90
28835;DHT22;15969;51.536;11.884;2023-04-28T13:41:16;14.60;99.90
28835;DHT22;15969;51.536;11.884;2023-04-28T13:43:43;14.60;99.90
28835;DHT22;15969;51.536;11.884;2023-04-28T13:46:09;14.50;99.90
28835;DHT22;15969;51.536;11.884;2023-04-28T13:48:35;14.40;99.90
28835;DHT22;15969;51.536;11.884;2023-04-28T13:51:02;14.30;99.90
28835;DHT22;15969;51.536;11.884;2023-04-28T13:53:28;14.20;99.90
28835;DHT22;15969;51.536;11.884;2023-04-28T13:55:54;14.10;99.90
28835;DHT22;15969;51.536;11.884;2023-04-28T13:58:25;14.10;99.90
28835;DHT22;15969;51.536;11.884;2023-04-28T14:00:52;14.00;99.90
28835;DHT22;15969;51.536;11.884;2023-04-28T14:03:19;13.90;99.90
28835;DHT22;15969;51.536;11.884;2023-04-28T14:05:48;13.90;99.90
28835;DHT22;15969;51.536;11.884;2023-04-28T14:08:16;13.90;99.90
28835;DHT22;15969;51.536;11.884;2023-04-28T14:10:42;13.80;99.90
28835;DHT22;15969;51.536;11.884;2023-04-28T14:13:08;13.80;99.90
28835;DHT22;15969;51.536;11.884;2023-04-28T14:15:34;13.80;99.90
28835;DHT22;15969;51.536;11.884;2023-04-28T14:17:59;13.90;99.90
28835;DHT22;15969;51.536;11.884;2023-04-28T14:20:26;13.90;99.90
28835;DHT22;15969;51.536;11.884;2023-04-28T14:22:52;13.90;99.90
28835;DHT22;15969;51.536;11.884;2023-04-28T14:25:17;14.00;99.90
28835;DHT22;15969;51.536;11.884;2023-04-28T14:27:43;14.00;99.90
28835;DHT22;15969;51.536;11.884;2023-04-28T14:30:09;14.00;99.90
28835;DHT22;15969;51.536;11.884;2023-04-28T14:32:36;14.00;99.90
28835;DHT22;15969;51.536;11.884;2023-04-28T14:35:02;14.00;99.90
28835;DHT22;15969;51.536;11.884;2023-04-28T14:37:33;13.90;99.90
28835;DHT22;15969;51.536;11.884;2023-04-28T14:39:59;13.90;99.90
28835;DHT22;15969;51.536;11.884;2023-04-28T14:42:28;14.00;99.90
28835;DHT22;15969;51.536;11.884;2023-04-28T14:44:58;14.00;99.90
28835;DHT22;15969;51.536;11.884;2023-04-28T14:47:24;14.00;99.90
28835;DHT22;15969;51.536;11.884;2023-04-28T14:49:51;14.00;99.90
28835;DHT22;15969;51.536;11.884;2023-04-28T14:52:19;14.00;99.90
28835;DHT22;15969;51.536;11.884;2023-04-28T14:54:47;13.90;99.90
28835;DHT22;15969;51.536;11.884;2023-04-28T14:57:13;14.00;99.90
28835;DHT22;15969;51.536;11.884;2023-04-28T14:59:38;14.00;99.90
28835;DHT22;15969;51.536;11.884;2023-04-28T15:02:05;14.00;99.90
28835;DHT22;15969;51.536;11.884;2023-04-28T15:04:31;14.00;99.90
28835;DHT22;15969;51.536;11.884;2023-04-28T15:06:57;14.00;99.90
28835;DHT22;15969;51.536;11.884;2023-04-28T15:09:24;14.00;99.90
28835;DHT22;15969;51.536;11.884;2023-04-28T15:11:50;14.10;99.90
28835;DHT22;15969;51.536;11.884;2023-04-28T15:14:16;14.10;99.90
28835;DHT22;15969;51.536;11.884;2023-04-28T15:16:43;14.10;99.90
28835;DHT22;15969;51.536;11.884;2023-04-28T15:19:09;14.10;99.90
28835;DHT22;15969;51.536;11.884;2023-04-28T15:21:35;14.10;99.90
28835;DHT22;15969;51.536;11.884;2023-04-28T15:24:01;14.10;99.90
28835;DHT22;15969;51.536;11.884;2023-04-28T15:26:26;14.10;99.90
28835;DHT22;15969;51.536;11.884;2023-04-28T15:28:53;14.20;99.90
28835;DHT22;15969;51.536;11.884;2023-04-28T15:31:19;14.20;99.90
28835;DHT22;15969;51.536;11.884;2023-04-28T15:33:48;14.20;99.90
28835;DHT22;15969;51.536;11.884;2023-04-28T15:36:14;14.10;99.90
28835;DHT22;15969;51.536;11.884;2023-04-28T15:38:40;14.20;99.90
28835;DHT22;15969;51.536;11.884;2023-04-28T15:41:07;14.10;99.90
28835;DHT22;15969;51.536;11.884;2023-04-28T15:43:33;14.10;99.90
28835;DHT22;15969;51.536;11.884;2023-04-28T15:45:59;14.10;99.90
28835;DHT22;15969;51.536;11.884;2023-04-28T15:48:25;14.10;99.90
28835;DHT22;15969;51.536;11.884;2023-04-28T15:50:51;14.10;99.90
28835;DHT22;15969;51.536;11.884;2023-04-28T15:53:17;14.10;99.90
28835;DHT22;15969;51.536;11.884;2023-04-28T15:55:43;14.20;99.90
28835;DHT22;15969;51.536;11.884;2023-04-28T15:58:09;14.20;99.90
28835;DHT22;15969;51.536;11.884;2023-04-28T16:00:35;14.20;99.90